Time;durP1;ratioP1;P1;durP2;ratioP2;P2;SDS_P1;SDS_P2;PMS_P1;PMS_P2;Temp;Humidity;BMP_temperature;BMP_pressure;BME280_temperature;BME280_humidity;BME280_pressure;Samples;Min_cycle;Max_cycle;Signal;HPM_P1;HPM_P2
2023/06/26 00:00:19;;;;;;;13.65;9.38;;;25.50;94.30;;;;;;4922374;29;20554;-75
2023/06/26 00:02:45;;;;;;;10.18;8.77;;;25.50;94.50;;;;;;4905996;29;20239;-75
2023/06/26 00:05:11;;;;;;;10.43;8.90;;;25.40;94.60;;;;;;4932531;29;20198;-75
2023/06/26 00:07:37;;;;;;;11.85;9.25;;;25.40;94.70;;;;;;4921533;29;20184;-75
2023/06/26 00:10:04;;;;;;;14.55;9.27;;;25.30;94.80;;;;;;4939595;29;20565;-75
2023/06/26 00:12:30;;;;;;;12.60;8.95;;;25.30;94.90;;;;;;4938479;29;20677;-80
2023/06/26 00:14:57;;;;;;;13.10;9.73;;;25.20;95.00;;;;;;4934652;29;20186;-75
2023/06/26 00:17:23;;;;;;;14.23;9.50;;;25.20;95.10;;;;;;4922152;29;20183;-75
2023/06/26 00:19:49;;;;;;;14.88;9.55;;;25.20;95.20;;;;;;4938814;29;20187;-76
2023/06/26 00:22:15;;;;;;;11.10;9.35;;;25.20;95.30;;;;;;4938765;29;20199;-76
2023/06/26 00:24:40;;;;;;;12.60;9.93;;;25.20;95.40;;;;;;4934263;29;20200;-76
2023/06/26 00:27:06;;;;;;;10.98;9.02;;;25.10;95.50;;;;;;4934113;29;20187;-76
2023/06/26 00:29:32;;;;;;;12.02;9.70;;;25.10;95.60;;;;;;4938555;29;20179;-76
2023/06/26 00:31:58;;;;;;;10.68;8.82;;;25.10;95.80;;;;;;4920855;29;20199;-75
2023/06/26 00:34:24;;;;;;;11.25;9.20;;;25.00;95.80;;;;;;4915104;29;20242;-75
2023/06/26 00:36:50;;;;;;;16.40;9.88;;;25.00;95.90;;;;;;4911355;29;20225;-75
2023/06/26 00:39:15;;;;;;;12.55;9.27;;;25.00;96.10;;;;;;4919512;29;20176;-75
2023/06/26 00:41:41;;;;;;;13.18;9.60;;;25.00;96.30;;;;;;4888262;29;20616;-75
2023/06/26 00:44:07;;;;;;;11.80;9.77;;;24.90;96.40;;;;;;4921653;29;20191;-75
2023/06/26 00:46:34;;;;;;;13.50;10.23;;;24.80;96.60;;;;;;4916146;29;20179;-74
2023/06/26 00:49:03;;;;;;;11.68;10.02;;;24.80;96.80;;;;;;4920459;29;20191;-76
2023/06/26 00:51:31;;;;;;;12.10;10.60;;;24.80;97.00;;;;;;4921222;29;20203;-76
2023/06/26 00:53:57;;;;;;;13.48;10.02;;;24.70;97.20;;;;;;4904999;29;20283;-76
2023/06/26 00:56:24;;;;;;;16.17;10.68;;;24.70;97.50;;;;;;4913332;29;20195;-75
2023/06/26 00:58:49;;;;;;;12.75;10.77;;;24.70;97.70;;;;;;4937331;29;20187;-75
2023/06/26 01:01:17;;;;;;;14.32;10.52;;;24.60;97.90;;;;;;4937901;29;20225;-75
2023/06/26 01:03:45;;;;;;;16.83;11.45;;;24.60;98.10;;;;;;4936254;29;20187;-77
2023/06/26 01:06:13;;;;;;;15.73;11.13;;;24.50;98.30;;;;;;4932752;29;20192;-75
2023/06/26 01:08:42;;;;;;;15.13;11.23;;;24.50;98.40;;;;;;4931713;29;20205;-82
2023/06/26 01:11:08;;;;;;;14.30;10.70;;;24.50;98.70;;;;;;4934566;29;20555;-75
2023/06/26 01:13:35;;;;;;;13.98;10.57;;;24.40;98.80;;;;;;4903161;29;20192;-76
2023/06/26 01:16:02;;;;;;;13.27;10.95;;;24.40;98.80;;;;;;4915413;29;20192;-74
2023/06/26 01:18:30;;;;;;;13.60;10.77;;;24.40;98.90;;;;;;4933445;29;20214;-75
2023/06/26 01:21:00;;;;;;;12.65;10.60;;;24.40;99.00;;;;;;4933432;29;20290;-75
2023/06/26 01:23:58;;;;;;;15.63;10.45;;;24.40;98.90;;;;;;4920528;29;20191;-81
2023/06/26 01:26:27;;;;;;;12.27;10.05;;;24.40;98.90;;;;;;4904870;29;20623;-76
2023/06/26 01:28:53;;;;;;;13.45;10.13;;;24.40;98.90;;;;;;4936646;29;20238;-75
2023/06/26 01:31:20;;;;;;;12.23;10.35;;;24.40;98.90;;;;;;4912472;29;20195;-76
2023/06/26 01:33:47;;;;;;;13.00;9.98;;;24.40;99.00;;;;;;4936713;29;20202;-75
2023/06/26 01:36:12;;;;;;;11.48;9.50;;;24.40;98.90;;;;;;4933113;29;20184;-75
2023/06/26 01:38:38;;;;;;;14.68;9.73;;;24.40;98.90;;;;;;4918404;29;20176;-75
2023/06/26 01:41:06;;;;;;;14.70;10.02;;;24.40;98.80;;;;;;4935214;29;20187;-74
2023/06/26 01:43:46;;;;;;;12.98;9.82;;;24.40;98.80;;;;;;4920537;29;20187;-75
2023/06/26 01:46:34;;;;;;;11.70;9.32;;;24.40;98.60;;;;;;4932766;29;20208;-74
2023/06/26 01:49:03;;;;;;;13.32;9.40;;;24.40;98.50;;;;;;4918241;29;20180;-75
2023/06/26 01:51:33;;;;;;;13.93;9.40;;;24.40;98.50;;;;;;4930517;29;20235;-76
2023/06/26 01:53:59;;;;;;;11.00;8.98;;;24.40;98.40;;;;;;4937458;29;20180;-75
2023/06/26 01:56:28;;;;;;;12.85;8.90;;;24.40;98.30;;;;;;4936873;29;20219;-74
2023/06/26 01:58:55;;;;;;;11.38;9.63;;;24.50;98.30;;;;;;4937225;29;20183;-74
2023/06/26 02:01:22;;;;;;;11.43;9.57;;;24.50;98.30;;;;;;4934050;29;20230;-76
2023/06/26 02:03:48;;;;;;;15.73;9.55;;;24.50;98.30;;;;;;4929468;29;20636;-76
2023/06/26 02:06:14;;;;;;;13.20;9.50;;;24.50;98.30;;;;;;4936260;29;20257;-77
2023/06/26 02:08:40;;;;;;;14.20;8.98;;;24.50;98.30;;;;;;4937129;29;20183;-75
2023/06/26 02:11:06;;;;;;;12.80;9.20;;;24.50;98.30;;;;;;4935682;29;20211;-76
2023/06/26 02:13:32;;;;;;;11.55;9.65;;;24.40;98.20;;;;;;4929672;29;20675;-76
2023/06/26 02:15:58;;;;;;;12.55;9.18;;;24.40;98.20;;;;;;4936652;29;20222;-75
2023/06/26 02:18:24;;;;;;;11.57;9.18;;;24.40;98.20;;;;;;4919670;29;20589;-75
2023/06/26 02:20:50;;;;;;;12.20;10.00;;;24.40;98.20;;;;;;4931917;29;20187;-76
2023/06/26 02:23:16;;;;;;;12.07;9.75;;;24.50;98.20;;;;;;4908407;29;20219;-75
2023/06/26 02:25:41;;;;;;;11.90;9.60;;;24.40;98.20;;;;;;4900683;29;20188;-75
2023/06/26 02:28:09;;;;;;;11.68;9.88;;;24.40;98.20;;;;;;4917473;29;20274;-75
2023/06/26 02:30:35;;;;;;;12.07;9.98;;;24.40;98.60;;;;;;4904960;29;20341;-77
2023/06/26 02:33:01;;;;;;;12.90;10.10;;;24.40;98.30;;;;;;4928255;29;20209;-75
2023/06/26 02:35:27;;;;;;;11.43;9.30;;;24.40;98.40;;;;;;4936312;29;20239;-75
2023/06/26 02:37:52;;;;;;;14.43;9.63;;;24.30;98.40;;;;;;4919328;29;20183;-75
2023/06/26 02:40:18;;;;;;;15.05;10.45;;;24.30;98.50;;;;;;4912112;29;20700;-76
2023/06/26 02:42:44;;;;;;;14.02;10.65;;;24.30;98.50;;;;;;4913003;29;20535;-75
2023/06/26 02:45:10;;;;;;;12.35;9.93;;;24.40;98.60;;;;;;4916964;29;20193;-75
2023/06/26 02:47:39;;;;;;;11.00;9.57;;;24.30;98.70;;;;;;4934417;29;20199;-75
2023/06/26 02:50:06;;;;;;;13.30;10.23;;;24.30;98.80;;;;;;4903623;29;20183;-74
2023/06/26 02:52:50;;;;;;;13.18;10.10;;;24.20;98.80;;;;;;4918815;29;20188;-75
2023/06/26 02:55:17;;;;;;;12.98;10.25;;;24.20;98.90;;;;;;4917912;29;20183;-75
2023/06/26 02:57:43;;;;;;;12.00;9.63;;;24.20;98.90;;;;;;4918758;29;20198;-75
2023/06/26 03:00:09;;;;;;;13.93;10.25;;;24.20;98.90;;;;;;4917875;29;20183;-80
2023/06/26 03:02:42;;;;;;;13.68;11.20;;;24.20;98.90;;;;;;4913961;29;20223;-75
2023/06/26 03:05:13;;;;;;;14.90;10.65;;;24.20;98.90;;;;;;4934444;29;20251;-75
2023/06/26 03:07:39;;;;;;;13.65;10.98;;;24.20;99.30;;;;;;4906039;29;20208;-76
2023/06/26 03:10:06;;;;;;;16.08;11.00;;;24.20;98.90;;;;;;4899913;29;20558;-75
2023/06/26 03:12:31;;;;;;;14.95;11.02;;;24.20;99.00;;;;;;4914728;29;20278;-75
2023/06/26 03:14:57;;;;;;;13.05;10.63;;;24.20;99.00;;;;;;4918353;29;20278;-76
2023/06/26 03:17:23;;;;;;;14.65;11.35;;;24.20;99.00;;;;;;4918710;29;20230;-77
2023/06/26 03:19:52;;;;;;;17.27;10.88;;;24.20;99.10;;;;;;4918681;29;20214;-76
2023/06/26 03:22:20;;;;;;;14.07;11.15;;;24.20;99.10;;;;;;4924706;29;20226;-76
2023/06/26 03:24:46;;;;;;;15.15;11.30;;;24.20;99.10;;;;;;4916954;29;20183;-76
2023/06/26 03:27:12;;;;;;;14.93;11.75;;;24.20;99.20;;;;;;4917950;29;20195;-76
2023/06/26 03:29:38;;;;;;;17.17;13.07;;;24.10;99.20;;;;;;4918242;29;20282;-76
2023/06/26 03:32:05;;;;;;;16.35;12.18;;;24.10;99.30;;;;;;4901083;29;20191;-76
2023/06/26 03:34:31;;;;;;;18.00;12.48;;;24.10;99.30;;;;;;4913264;29;20263;-76
2023/06/26 03:36:57;;;;;;;19.48;12.48;;;24.10;99.40;;;;;;4906277;29;20687;-75
2023/06/26 03:39:23;;;;;;;17.95;12.77;;;24.00;99.50;;;;;;4911913;29;20195;-75
2023/06/26 03:41:49;;;;;;;18.05;14.40;;;24.00;99.60;;;;;;4902405;29;20217;-75
2023/06/26 03:44:15;;;;;;;15.10;11.60;;;24.00;99.80;;;;;;4912863;29;20595;-77
2023/06/26 03:46:45;;;;;;;17.02;12.20;;;24.00;99.90;;;;;;4918243;29;20610;-77
2023/06/26 03:49:11;;;;;;;17.02;12.05;;;24.00;99.90;;;;;;4918311;29;20225;-76
2023/06/26 03:51:37;;;;;;;15.82;11.95;;;23.90;99.90;;;;;;4918412;29;20230;-75
2023/06/26 03:54:03;;;;;;;17.23;11.82;;;23.90;99.90;;;;;;4917043;29;20218;-75
2023/06/26 03:56:29;;;;;;;16.60;12.00;;;23.90;99.90;;;;;;4917980;29;20710;-76
2023/06/26 03:58:54;;;;;;;18.02;13.10;;;23.90;99.90;;;;;;4918013;29;20187;-76
2023/06/26 04:01:21;;;;;;;16.23;11.75;;;23.90;99.90;;;;;;4906154;29;20250;-76
2023/06/26 04:03:48;;;;;;;16.33;11.40;;;23.80;99.90;;;;;;4916185;29;20282;-75
2023/06/26 04:06:14;;;;;;;13.98;12.43;;;23.80;99.90;;;;;;4913879;29;20668;-76
2023/06/26 04:08:40;;;;;;;16.35;13.70;;;23.80;99.90;;;;;;4914401;29;20219;-76
2023/06/26 04:11:06;;;;;;;16.23;13.25;;;23.80;99.90;;;;;;4916391;29;20184;-76
2023/06/26 04:13:32;;;;;;;13.82;11.15;;;23.80;99.90;;;;;;4928537;29;20243;-77
2023/06/26 04:15:57;;;;;;;14.52;11.57;;;23.80;99.90;;;;;;4901862;29;20219;-76
2023/06/26 04:18:23;;;;;;;15.32;11.13;;;23.70;99.90;;;;;;4935341;29;20183;-77
2023/06/26 04:21:11;;;;;;;13.95;11.38;;;23.70;99.90;;;;;;4930983;29;20176;-77
2023/06/26 04:23:38;;;;;;;19.77;11.43;;;23.70;99.90;;;;;;4935403;29;20199;-78
2023/06/26 04:26:04;;;;;;;15.43;11.30;;;23.70;99.90;;;;;;4928189;29;20184;-77
2023/06/26 04:28:34;;;;;;;15.02;11.02;;;23.60;99.90;;;;;;4932933;29;20179;-76
2023/06/26 04:31:01;;;;;;;15.10;11.10;;;23.60;99.90;;;;;;4934818;29;20655;-87
2023/06/26 04:33:27;;;;;;;17.33;11.10;;;23.60;99.90;;;;;;4917262;29;20273;-77
2023/06/26 04:35:53;;;;;;;15.20;11.18;;;23.60;99.90;;;;;;4915154;29;20709;-78
2023/06/26 04:38:20;;;;;;;15.40;10.77;;;23.60;99.90;;;;;;4898528;29;20183;-77
2023/06/26 04:40:46;;;;;;;16.42;11.30;;;23.60;99.90;;;;;;4934684;29;20179;-77
2023/06/26 04:43:11;;;;;;;15.05;10.70;;;23.60;99.90;;;;;;4934854;29;20293;-77
2023/06/26 04:45:37;;;;;;;19.35;10.88;;;23.50;99.90;;;;;;4937409;29;20189;-77
2023/06/26 04:48:03;;;;;;;16.60;9.73;;;23.50;99.90;;;;;;4932957;29;20546;-77
2023/06/26 04:50:30;;;;;;;15.65;10.20;;;23.60;99.90;;;;;;4938234;29;20180;-77
2023/06/26 04:52:56;;;;;;;15.40;10.00;;;23.50;99.90;;;;;;4917693;29;20207;-77
2023/06/26 04:55:24;;;;;;;15.10;9.93;;;23.60;99.90;;;;;;4919061;29;20218;-77
2023/06/26 04:57:50;;;;;;;15.50;9.45;;;23.50;99.90;;;;;;4927731;29;20179;-84
2023/06/26 05:00:16;;;;;;;14.45;9.35;;;23.50;99.90;;;;;;4917132;29;20199;-76
2023/06/26 05:02:42;;;;;;;16.35;9.55;;;23.50;99.90;;;;;;4937485;29;20243;-77
2023/06/26 05:05:08;;;;;;;15.88;9.50;;;23.40;99.90;;;;;;4937942;29;20195;-78
2023/06/26 05:07:34;;;;;;;19.45;9.65;;;23.40;99.90;;;;;;4919284;29;20239;-87
2023/06/26 05:10:00;;;;;;;19.90;10.38;;;23.40;99.90;;;;;;4898053;29;20195;-78
2023/06/26 05:12:26;;;;;;;21.33;10.63;;;23.40;99.90;;;;;;4917931;29;20661;-77
2023/06/26 05:14:51;;;;;;;21.50;11.02;;;23.40;99.90;;;;;;4905236;29;20192;-77
2023/06/26 05:17:17;;;;;;;20.30;10.82;;;23.30;99.90;;;;;;4936998;29;20665;-78
2023/06/26 05:19:43;;;;;;;24.95;10.75;;;23.20;99.90;;;;;;4931265;29;20727;-79
2023/06/26 05:22:09;;;;;;;21.70;12.02;;;23.20;99.90;;;;;;4929402;29;20287;-77
2023/06/26 05:24:37;;;;;;;26.67;12.27;;;23.20;99.90;;;;;;4919563;29;20597;-76
2023/06/26 05:27:03;;;;;;;22.48;11.52;;;23.20;99.90;;;;;;4917210;29;20190;-77
2023/06/26 05:29:31;;;;;;;29.17;12.95;;;23.20;99.90;;;;;;4935377;29;20191;-77
2023/06/26 05:31:57;;;;;;;25.88;11.38;;;23.10;99.90;;;;;;4920482;29;20188;-78
2023/06/26 05:34:24;;;;;;;25.15;11.45;;;23.10;99.90;;;;;;4919538;29;20707;-75
2023/06/26 05:36:57;;;;;;;21.38;10.65;;;23.10;99.90;;;;;;4934487;29;20271;-78
2023/06/26 05:39:24;;;;;;;21.73;8.73;;;23.00;99.90;;;;;;4902221;29;20194;-76
2023/06/26 05:41:50;;;;;;;19.58;8.10;;;23.00;99.90;;;;;;4920211;29;20305;-80
2023/06/26 05:44:16;;;;;;;18.30;7.20;;;22.90;99.90;;;;;;4937358;29;20644;-77
2023/06/26 05:46:43;;;;;;;16.33;7.40;;;22.90;99.90;;;;;;4936006;29;20192;-78
2023/06/26 05:49:09;;;;;;;28.33;8.18;;;22.80;99.90;;;;;;4929620;29;20188;-80
2023/06/26 05:51:36;;;;;;;17.52;7.05;;;22.70;99.90;;;;;;4934259;29;20536;-78
2023/06/26 05:54:02;;;;;;;22.42;7.65;;;22.60;99.90;;;;;;4934054;29;20279;-79
2023/06/26 05:56:29;;;;;;;23.33;7.68;;;22.60;99.90;;;;;;4919942;29;20235;-79
2023/06/26 05:58:55;;;;;;;18.17;6.60;;;22.50;99.90;;;;;;4919243;29;20678;-78
2023/06/26 06:01:21;;;;;;;22.45;7.38;;;22.50;99.90;;;;;;4919804;29;20358;-78
2023/06/26 06:03:47;;;;;;;21.90;7.10;;;22.50;99.90;;;;;;4903301;29;20184;-82
2023/06/26 06:06:12;;;;;;;16.17;6.57;;;22.40;99.90;;;;;;4936540;29;20182;-79
2023/06/26 06:08:38;;;;;;;15.50;6.50;;;22.50;99.90;;;;;;4917112;29;20286;-78
2023/06/26 06:11:05;;;;;;;19.95;6.28;;;22.40;99.90;;;;;;4933819;29;20188;-78
2023/06/26 06:13:30;;;;;;;21.65;6.47;;;22.40;99.90;;;;;;4936708;29;20195;-78
2023/06/26 06:15:56;;;;;;;17.83;5.93;;;22.50;99.90;;;;;;4919362;29;20176;-78
2023/06/26 06:18:22;;;;;;;21.63;5.40;;;22.50;99.90;;;;;;4903378;29;20651;-80
2023/06/26 06:20:48;;;;;;;23.92;6.00;;;22.50;99.90;;;;;;4914548;29;20671;-80
2023/06/26 06:23:13;;;;;;;22.95;5.57;;;22.50;99.90;;;;;;4936632;29;20310;-79
2023/06/26 06:25:39;;;;;;;19.15;5.03;;;22.50;99.90;;;;;;4936660;29;20187;-81
2023/06/26 06:28:05;;;;;;;19.38;5.05;;;22.50;99.90;;;;;;4931461;29;20187;-80
2023/06/26 06:30:31;;;;;;;18.45;5.07;;;22.50;99.90;;;;;;4933953;29;20210;-80
2023/06/26 06:32:58;;;;;;;21.00;5.25;;;22.50;99.90;;;;;;4935221;29;20230;-79
2023/06/26 06:35:24;;;;;;;19.33;5.00;;;22.40;99.90;;;;;;4917438;29;20231;-80
2023/06/26 06:37:50;;;;;;;15.80;4.45;;;22.50;99.90;;;;;;4918780;29;20183;-80
2023/06/26 06:40:16;;;;;;;21.50;4.85;;;22.50;99.90;;;;;;4931677;29;20598;-79
2023/06/26 06:42:41;;;;;;;13.15;4.30;;;22.60;99.90;;;;;;4901400;29;20226;-81
2023/06/26 06:45:08;;;;;;;15.73;3.72;;;22.70;99.90;;;;;;4919462;29;20635;-80
2023/06/26 06:47:34;;;;;;;12.35;3.78;;;22.70;99.90;;;;;;4902592;29;20210;-80
2023/06/26 06:50:07;;;;;;;18.23;4.22;;;22.70;99.90;;;;;;4916365;29;20626;-79
2023/06/26 06:52:39;;;;;;;17.13;3.53;;;22.70;99.90;;;;;;4902938;29;20202;-80
2023/06/26 06:55:08;;;;;;;13.65;4.05;;;22.70;99.90;;;;;;4930821;29;20186;-79
2023/06/26 06:57:39;;;;;;;10.27;3.47;;;22.80;99.90;;;;;;4916936;29;20621;-79
2023/06/26 07:00:12;;;;;;;11.90;4.05;;;22.90;99.90;;;;;;4922224;29;20287;-78
2023/06/26 07:02:39;;;;;;;13.70;3.53;;;22.80;99.90;;;;;;4932481;29;20682;-78
2023/06/26 07:05:05;;;;;;;11.27;3.38;;;22.90;99.90;;;;;;4931054;29;20195;-76
2023/06/26 07:07:32;;;;;;;41.67;26.00;;;22.90;99.90;;;;;;4932459;29;20266;-91
2023/06/26 07:10:00;;;;;;;19.70;9.45;;;23.00;99.90;;;;;;4915218;29;20319;-75
2023/06/26 07:12:26;;;;;;;8.90;2.78;;;23.00;99.90;;;;;;4914641;29;20222;-76
2023/06/26 07:14:51;;;;;;;9.68;2.72;;;23.00;99.90;;;;;;4918318;29;20282;-79
2023/06/26 07:17:17;;;;;;;9.25;2.75;;;23.00;99.90;;;;;;4919282;29;20652;-77
2023/06/26 07:19:43;;;;;;;12.70;3.10;;;23.00;99.90;;;;;;4935720;29;20651;-77
2023/06/26 07:22:09;;;;;;;10.25;2.67;;;23.10;99.90;;;;;;4926804;29;20218;-78
2023/06/26 07:24:34;;;;;;;7.32;2.53;;;23.10;99.90;;;;;;4934985;29;20563;-79
2023/06/26 07:27:00;;;;;;;7.28;2.38;;;23.10;99.90;;;;;;4931238;29;20278;-77
2023/06/26 07:29:26;;;;;;;11.57;2.53;;;23.20;99.90;;;;;;4918525;29;20298;-77
2023/06/26 07:31:52;;;;;;;11.25;2.72;;;23.20;99.90;;;;;;4919145;29;20207;-78
2023/06/26 07:34:18;;;;;;;8.15;2.65;;;23.30;99.90;;;;;;4918341;29;20231;-78
2023/06/26 07:36:44;;;;;;;9.65;2.85;;;23.30;99.90;;;;;;4918441;29;20278;-77
2023/06/26 07:39:09;;;;;;;9.23;2.58;;;23.40;99.90;;;;;;4903314;29;20672;-77
2023/06/26 07:41:35;;;;;;;10.23;2.53;;;23.50;99.90;;;;;;4935554;29;20210;-77
2023/06/26 07:44:01;;;;;;;8.82;2.88;;;23.50;99.90;;;;;;4935727;29;20572;-79
2023/06/26 07:46:27;;;;;;;7.85;2.15;;;23.60;99.90;;;;;;4933338;29;20278;-78
2023/06/26 07:48:53;;;;;;;8.20;2.53;;;23.60;99.90;;;;;;4931079;29;20187;-78
2023/06/26 07:51:18;;;;;;;11.32;2.40;;;23.60;99.90;;;;;;4933786;29;20207;-78
2023/06/26 07:53:44;;;;;;;10.77;2.25;;;23.60;99.90;;;;;;4928760;29;20198;-79
2023/06/26 07:56:10;;;;;;;10.10;2.30;;;23.70;99.90;;;;;;4913792;29;20234;-77
2023/06/26 07:58:36;;;;;;;9.07;2.20;;;23.70;99.90;;;;;;4932720;29;20571;-78
2023/06/26 08:01:02;;;;;;;11.15;2.15;;;23.80;99.90;;;;;;4935399;29;20281;-77
2023/06/26 08:03:27;;;;;;;10.27;1.95;;;23.90;99.90;;;;;;4915736;29;21177;-78
2023/06/26 08:05:53;;;;;;;6.47;2.08;;;23.90;99.90;;;;;;4922385;29;20275;-78
2023/06/26 08:08:19;;;;;;;6.72;2.50;;;23.90;99.90;;;;;;4918988;29;20184;-79
2023/06/26 08:10:44;;;;;;;6.03;1.88;;;23.80;99.90;;;;;;4926252;29;20279;-79
2023/06/26 08:13:10;;;;;;;9.27;2.30;;;23.90;99.90;;;;;;4920194;29;20554;-78
2023/06/26 08:15:36;;;;;;;10.40;2.42;;;23.80;99.90;;;;;;4920834;29;20195;-79
2023/06/26 08:18:02;;;;;;;10.38;2.25;;;23.80;99.90;;;;;;4903729;29;20215;-78
2023/06/26 08:20:28;;;;;;;8.18;2.30;;;23.80;99.90;;;;;;4905097;29;20176;-79
2023/06/26 08:22:54;;;;;;;9.85;2.55;;;23.90;99.90;;;;;;4903965;29;20229;-79
2023/06/26 08:25:20;;;;;;;4.20;2.10;;;23.90;99.90;;;;;;4928444;29;20200;-78
2023/06/26 08:27:46;;;;;;;11.95;2.38;;;23.90;99.80;;;;;;4937892;29;20250;-78
2023/06/26 08:30:13;;;;;;;7.35;2.38;;;23.90;99.60;;;;;;4939756;29;20196;-78
2023/06/26 08:32:39;;;;;;;7.70;2.17;;;24.00;99.50;;;;;;4940057;29;20306;-81
2023/06/26 08:35:06;;;;;;;7.93;2.10;;;24.10;99.50;;;;;;4935508;29;20290;-79
2023/06/26 08:37:32;;;;;;;8.48;2.38;;;24.10;99.40;;;;;;4934185;29;20187;-79
2023/06/26 08:40:01;;;;;;;11.85;3.30;;;24.10;99.20;;;;;;4938877;29;20666;-79
2023/06/26 08:42:27;;;;;;;9.50;2.42;;;24.20;99.00;;;;;;4938815;29;20222;-77
2023/06/26 08:44:53;;;;;;;9.43;2.53;;;24.30;98.70;;;;;;4938615;29;20239;-85
2023/06/26 08:47:19;;;;;;;10.30;2.50;;;24.20;98.60;;;;;;4917681;29;20183;-83
2023/06/26 08:50:10;;;;;;;6.65;2.40;;;24.20;98.60;;;;;;4937500;29;20187;-79
2023/06/26 08:52:58;;;;;;;8.85;2.75;;;24.20;98.40;;;;;;4939062;29;20222;-78
2023/06/26 08:55:26;;;;;;;7.35;2.85;;;24.30;98.40;;;;;;4920998;29;20207;-78
2023/06/26 08:57:53;;;;;;;5.32;2.30;;;24.40;98.50;;;;;;4936992;29;20655;-78
2023/06/26 09:00:20;;;;;;;11.82;2.90;;;24.40;98.50;;;;;;4932584;29;20558;-78
2023/06/26 09:02:46;;;;;;;8.10;2.58;;;24.40;98.50;;;;;;4933138;29;20207;-79
2023/06/26 09:05:12;;;;;;;5.35;2.38;;;24.50;98.20;;;;;;4921263;29;20267;-78
2023/06/26 09:07:37;;;;;;;9.73;2.50;;;24.50;97.80;;;;;;4938110;29;20672;-77
2023/06/26 09:10:03;;;;;;;6.55;2.47;;;24.60;97.50;;;;;;4936354;29;20238;-78
2023/06/26 09:12:31;;;;;;;7.57;2.60;;;24.70;97.40;;;;;;4934169;29;20211;-77
2023/06/26 09:14:56;;;;;;;8.13;2.75;;;24.70;97.30;;;;;;4936354;29;20187;-78
2023/06/26 09:17:30;;;;;;;6.72;2.63;;;24.80;97.00;;;;;;4938105;29;20198;-78
2023/06/26 09:19:55;;;;;;;9.63;2.70;;;24.80;96.70;;;;;;4935823;29;20643;-79
2023/06/26 09:22:22;;;;;;;8.77;2.30;;;24.80;96.60;;;;;;4932348;29;20221;-78
2023/06/26 09:24:48;;;;;;;7.82;2.55;;;24.90;96.40;;;;;;4937895;29;20226;-78
2023/06/26 09:27:14;;;;;;;6.35;2.30;;;24.90;95.90;;;;;;4937928;29;20211;-79
2023/06/26 09:29:40;;;;;;;4.47;2.30;;;25.00;95.60;;;;;;4937198;29;20187;-79
2023/06/26 09:32:09;;;;;;;9.57;2.70;;;25.00;95.20;;;;;;4914207;29;20192;-78
2023/06/26 09:34:34;;;;;;;6.55;2.60;;;24.90;94.90;;;;;;4936790;29;20237;-79
2023/06/26 09:37:03;;;;;;;8.02;2.78;;;24.90;94.90;;;;;;4924823;29;20184;-79
2023/06/26 09:39:31;;;;;;;5.65;2.60;;;24.90;94.90;;;;;;4917594;29;20188;-79
2023/06/26 09:41:57;;;;;;;8.63;2.97;;;24.80;94.90;;;;;;4925649;29;20215;-82
2023/06/26 09:44:23;;;;;;;6.32;2.70;;;24.90;95.10;;;;;;4884255;29;20199;-79
2023/06/26 09:46:49;;;;;;;8.30;2.78;;;24.90;94.90;;;;;;4901172;29;20246;-78
2023/06/26 09:49:15;;;;;;;7.00;2.63;;;25.00;94.70;;;;;;4902646;29;20267;-79
2023/06/26 09:51:42;;;;;;;7.20;2.63;;;25.10;94.50;;;;;;4919706;29;20194;-78
2023/06/26 09:54:11;;;;;;;10.07;2.88;;;25.20;94.30;;;;;;4919787;29;20191;-79
2023/06/26 09:56:37;;;;;;;5.53;2.92;;;25.30;93.90;;;;;;4910209;29;20200;-80
2023/06/26 09:59:05;;;;;;;6.13;2.67;;;25.30;93.40;;;;;;4916924;29;20179;-80
2023/06/26 10:01:32;;;;;;;7.05;2.90;;;25.30;93.00;;;;;;4918026;29;20218;-79
2023/06/26 10:03:58;;;;;;;6.50;3.10;;;25.40;92.70;;;;;;4916198;29;20664;-78
2023/06/26 10:06:31;;;;;;;5.35;2.83;;;25.40;92.50;;;;;;4917923;29;20195;-78
2023/06/26 10:08:59;;;;;;;6.65;3.03;;;25.40;92.30;;;;;;4932957;29;20195;-78
2023/06/26 10:11:27;;;;;;;8.38;3.13;;;25.40;92.00;;;;;;4919691;29;20179;-79
2023/06/26 10:13:54;;;;;;;8.80;2.63;;;25.40;91.80;;;;;;4936799;29;20197;-77
2023/06/26 10:16:25;;;;;;;4.63;3.00;;;25.40;91.60;;;;;;4918720;29;20175;-77
2023/06/26 10:18:55;;;;;;;7.38;2.90;;;25.50;91.70;;;;;;4936732;29;20171;-78
2023/06/26 10:21:23;;;;;;;6.18;2.67;;;25.60;91.50;;;;;;4935396;29;20223;-78
2023/06/26 10:23:51;;;;;;;5.18;2.60;;;25.60;91.20;;;;;;4936590;29;20278;-79
2023/06/26 10:26:21;;;;;;;7.30;2.80;;;25.70;90.70;;;;;;4936561;29;20598;-78
2023/06/26 10:28:51;;;;;;;5.20;2.78;;;25.70;90.10;;;;;;4914554;29;20195;-78
2023/06/26 10:31:21;;;;;;;6.55;2.78;;;25.70;89.20;;;;;;4903805;29;20193;-79
2023/06/26 10:33:48;;;;;;;8.30;3.22;;;25.80;88.60;;;;;;4935206;29;20235;-80
2023/06/26 10:36:15;;;;;;;7.68;3.20;;;25.80;88.10;;;;;;4929750;29;20231;-79
2023/06/26 10:39:07;;;;;;;8.45;3.13;;;25.80;88.00;;;;;;4927443;29;20198;-78
2023/06/26 10:41:38;;;;;;;5.68;2.90;;;25.70;88.10;;;;;;4913611;29;20238;-77
2023/06/26 10:44:10;;;;;;;6.90;3.03;;;25.60;87.90;;;;;;4903368;29;20205;-77
2023/06/26 10:46:56;;;;;;;6.28;3.03;;;25.70;87.60;;;;;;4919182;29;20190;-78
2023/06/26 10:49:28;;;;;;;5.68;2.70;;;25.70;86.90;;;;;;4913509;29;20191;-80
2023/06/26 10:51:55;;;;;;;5.68;2.67;;;25.70;86.50;;;;;;4900348;29;20255;-78
2023/06/26 10:54:21;;;;;;;6.40;3.08;;;25.80;86.30;;;;;;4917005;29;20180;-78
2023/06/26 10:56:56;;;;;;;8.90;3.55;;;25.80;86.50;;;;;;4916951;29;20200;-78
2023/06/26 10:59:27;;;;;;;6.30;3.03;;;25.80;86.50;;;;;;4921575;29;20190;-79
2023/06/26 11:01:59;;;;;;;8.55;3.53;;;25.80;86.80;;;;;;4916850;29;20683;-78
2023/06/26 11:04:51;;;;;;;5.05;2.63;;;25.80;86.40;;;;;;4935324;29;20194;-77
2023/06/26 11:07:25;;;;;;;7.20;2.35;;;25.80;85.20;;;;;;4935708;29;20250;-78
2023/06/26 11:09:57;;;;;;;7.43;2.65;;;25.80;83.90;;;;;;4916436;29;20696;-80
2023/06/26 11:12:43;;;;;;;8.40;2.40;;;25.80;83.60;;;;;;4917053;29;20282;-77
2023/06/26 11:15:14;;;;;;;7.80;2.63;;;25.80;83.80;;;;;;4935590;29;20183;-80
2023/06/26 11:17:41;;;;;;;7.43;2.80;;;25.90;84.10;;;;;;4918699;29;20195;-78
2023/06/26 11:20:12;;;;;;;10.80;2.60;;;26.00;82.70;;;;;;4917939;29;20191;-78
2023/06/26 11:22:39;;;;;;;5.90;2.40;;;26.00;82.80;;;;;;4916529;29;20211;-78
2023/06/26 11:25:06;;;;;;;6.43;2.28;;;26.00;82.90;;;;;;4916542;29;20674;-79
2023/06/26 11:27:37;;;;;;;8.18;2.50;;;26.00;82.70;;;;;;4916771;29;20176;-78
2023/06/26 11:30:07;;;;;;;11.40;2.22;;;26.00;82.60;;;;;;4918605;29;20277;-78
2023/06/26 11:32:33;;;;;;;10.48;2.17;;;25.90;82.30;;;;;;4913043;29;20183;-78
2023/06/26 11:34:59;;;;;;;15.13;3.03;;;25.90;82.30;;;;;;4931856;29;20226;-78
2023/06/26 11:37:26;;;;;;;5.65;1.95;;;26.00;82.30;;;;;;4919614;29;20214;-77
2023/06/26 11:39:51;;;;;;;3.97;1.70;;;26.00;82.20;;;;;;4916305;29;20271;-78
2023/06/26 11:42:20;;;;;;;5.30;1.88;;;26.00;81.50;;;;;;4918048;29;20334;-78
2023/06/26 11:44:47;;;;;;;6.65;2.03;;;26.10;80.90;;;;;;4935409;29;20179;-78
2023/06/26 11:47:17;;;;;;;6.30;2.35;;;26.00;80.50;;;;;;4918179;29;20195;-79
2023/06/26 11:49:44;;;;;;;7.50;1.88;;;26.00;80.90;;;;;;4934226;29;20278;-77
2023/06/26 11:52:10;;;;;;;5.97;1.67;;;26.00;80.80;;;;;;4931352;29;20261;-78
2023/06/26 11:54:39;;;;;;;5.50;1.95;;;26.00;80.30;;;;;;4934097;29;20707;-80
2023/06/26 11:57:05;;;;;;;8.55;1.83;;;26.00;80.20;;;;;;4939391;29;20202;-78
2023/06/26 11:59:35;;;;;;;8.38;1.67;;;26.10;79.60;;;;;;4921963;29;20579;-78
2023/06/26 12:02:21;;;;;;;6.63;1.88;;;26.10;78.60;;;;;;4932651;29;20219;-78
2023/06/26 12:04:47;;;;;;;6.72;2.08;;;26.10;78.20;;;;;;4934540;29;20195;-78
2023/06/26 12:07:13;;;;;;;7.15;2.00;;;26.20;77.90;;;;;;4938985;29;20638;-78
2023/06/26 12:09:43;;;;;;;11.52;2.10;;;26.20;77.40;;;;;;4921921;29;20654;-79
2023/06/26 12:12:11;;;;;;;6.60;1.80;;;26.20;77.30;;;;;;4923341;29;20187;-78
2023/06/26 12:14:37;;;;;;;4.47;1.80;;;26.10;77.20;;;;;;4934744;29;20191;-78
2023/06/26 12:17:13;;;;;;;9.13;2.00;;;26.20;77.00;;;;;;4921875;29;20179;-80
2023/06/26 12:19:43;;;;;;;6.00;1.73;;;26.20;76.70;;;;;;4939056;29;20231;-80
2023/06/26 12:22:09;;;;;;;10.30;1.70;;;26.10;76.70;;;;;;4937406;29;20219;-79
2023/06/26 12:24:39;;;;;;;7.47;2.10;;;26.10;76.00;;;;;;4938530;29;20187;-79
2023/06/26 12:27:13;;;;;;;6.47;2.13;;;26.00;76.00;;;;;;4902457;29;20192;-78
2023/06/26 12:29:43;;;;;;;6.75;1.80;;;26.00;76.50;;;;;;4919544;29;20187;-81
2023/06/26 12:32:10;;;;;;;10.32;1.90;;;26.00;75.90;;;;;;4889939;29;20287;-80
2023/06/26 12:34:38;;;;;;;7.97;1.90;;;26.00;75.50;;;;;;4917734;29;20238;-80
2023/06/26 12:37:13;;;;;;;8.48;1.70;;;26.00;75.20;;;;;;4925818;29;20192;-79
2023/06/26 12:39:48;;;;;;;7.97;2.40;;;26.10;74.90;;;;;;4920350;29;20231;-79